sensor_id;sensor_type;location;lat;lon;timestamp;temperature;humidity
35746;DHT22;21870;42.812;74.628;2022-10-22T00:00:25;15.60;82.20
35746;DHT22;21870;42.812;74.628;2022-10-22T00:02:52;15.60;84.20
35746;DHT22;21870;42.812;74.628;2022-10-22T00:05:18;15.50;85.40
35746;DHT22;21870;42.812;74.628;2022-10-22T00:07:44;15.40;84.80
35746;DHT22;21870;42.812;74.628;2022-10-22T00:10:10;15.30;85.30
35746;DHT22;21870;42.812;74.628;2022-10-22T00:12:36;15.30;82.80
35746;DHT22;21870;42.812;74.628;2022-10-22T00:15:04;15.40;82.90
35746;DHT22;21870;42.812;74.628;2022-10-22T00:17:31;15.40;84.00
35746;DHT22;21870;42.812;74.628;2022-10-22T00:19:57;15.40;83.00
35746;DHT22;21870;42.812;74.628;2022-10-22T00:22:23;15.40;85.90
35746;DHT22;21870;42.812;74.628;2022-10-22T00:24:49;15.30;84.30
35746;DHT22;21870;42.812;74.628;2022-10-22T00:27:15;15.30;83.20
35746;DHT22;21870;42.812;74.628;2022-10-22T00:29:42;15.20;82.30
35746;DHT22;21870;42.812;74.628;2022-10-22T00:32:08;15.40;82.50
35746;DHT22;21870;42.812;74.628;2022-10-22T00:34:37;15.60;79.90
35746;DHT22;21870;42.812;74.628;2022-10-22T00:37:03;15.60;80.00
35746;DHT22;21870;42.812;74.628;2022-10-22T00:39:29;15.70;82.00
35746;DHT22;21870;42.812;74.628;2022-10-22T00:41:59;15.50;84.10
35746;DHT22;21870;42.812;74.628;2022-10-22T00:47:27;15.30;84.20
35746;DHT22;21870;42.812;74.628;2022-10-22T00:49:54;15.10;87.30
35746;DHT22;21870;42.812;74.628;2022-10-22T00:52:21;15.40;79.20
35746;DHT22;21870;42.812;74.628;2022-10-22T00:54:47;15.70;78.60
35746;DHT22;21870;42.812;74.628;2022-10-22T00:57:15;16.00;77.30
35746;DHT22;21870;42.812;74.628;2022-10-22T00:59:41;16.30;76.30
35746;DHT22;21870;42.812;74.628;2022-10-22T01:02:07;16.60;75.20
35746;DHT22;21870;42.812;74.628;2022-10-22T01:04:33;16.80;75.30
35746;DHT22;21870;42.812;74.628;2022-10-22T01:06:59;17.00;75.00
35746;DHT22;21870;42.812;74.628;2022-10-22T01:10:07;17.00;74.20
35746;DHT22;21870;42.812;74.628;2022-10-22T01:18:22;17.20;73.40
35746;DHT22;21870;42.812;74.628;2022-10-22T01:21:09;17.20;72.50
35746;DHT22;21870;42.812;74.628;2022-10-22T01:29:21;17.50;71.80
35746;DHT22;21870;42.812;74.628;2022-10-22T01:31:55;17.30;77.00
35746;DHT22;21870;42.812;74.628;2022-10-22T01:34:24;17.10;79.00
35746;DHT22;21870;42.812;74.628;2022-10-22T01:36:52;16.80;81.60
35746;DHT22;21870;42.812;74.628;2022-10-22T01:39:19;16.60;81.20
35746;DHT22;21870;42.812;74.628;2022-10-22T01:41:46;16.50;76.90
35746;DHT22;21870;42.812;74.628;2022-10-22T01:46:52;16.90;73.40
35746;DHT22;21870;42.812;74.628;2022-10-22T01:52:22;17.30;72.60
35746;DHT22;21870;42.812;74.628;2022-10-22T01:55:11;17.30;73.40
35746;DHT22;21870;42.812;74.628;2022-10-22T02:00:45;17.40;74.60
35746;DHT22;21870;42.812;74.628;2022-10-22T02:03:20;17.50;74.00
35746;DHT22;21870;42.812;74.628;2022-10-22T02:05:54;17.60;74.30
35746;DHT22;21870;42.812;74.628;2022-10-22T02:08:24;17.70;74.30
35746;DHT22;21870;42.812;74.628;2022-10-22T02:10:53;17.80;73.90
35746;DHT22;21870;42.812;74.628;2022-10-22T02:13:24;17.90;74.30
35746;DHT22;21870;42.812;74.628;2022-10-22T02:15:52;18.00;73.70
35746;DHT22;21870;42.812;74.628;2022-10-22T02:18:26;18.10;73.90
35746;DHT22;21870;42.812;74.628;2022-10-22T02:20:53;18.30;73.50
35746;DHT22;21870;42.812;74.628;2022-10-22T02:23:21;18.40;73.60
35746;DHT22;21870;42.812;74.628;2022-10-22T02:25:53;18.40;79.10
35746;DHT22;21870;42.812;74.628;2022-10-22T02:28:26;18.50;74.30
35746;DHT22;21870;42.812;74.628;2022-10-22T02:30:58;18.60;76.40
35746;DHT22;21870;42.812;74.628;2022-10-22T02:33:29;18.70;73.90
35746;DHT22;21870;42.812;74.628;2022-10-22T02:35:58;19.00;73.90
35746;DHT22;21870;42.812;74.628;2022-10-22T02:38:26;19.10;73.60
35746;DHT22;21870;42.812;74.628;2022-10-22T02:40:53;19.20;73.30
35746;DHT22;21870;42.812;74.628;2022-10-22T02:43:19;19.40;72.10
35746;DHT22;21870;42.812;74.628;2022-10-22T02:45:48;19.60;73.00
35746;DHT22;21870;42.812;74.628;2022-10-22T02:48:14;19.70;72.40
35746;DHT22;21870;42.812;74.628;2022-10-22T02:50:43;19.90;72.10
35746;DHT22;21870;42.812;74.628;2022-10-22T02:53:09;20.10;71.00
35746;DHT22;21870;42.812;74.628;2022-10-22T02:55:36;20.40;70.00
35746;DHT22;21870;42.812;74.628;2022-10-22T02:58:02;20.60;70.30
35746;DHT22;21870;42.812;74.628;2022-10-22T03:00:28;20.70;70.30
35746;DHT22;21870;42.812;74.628;2022-10-22T03:02:54;20.90;69.80
35746;DHT22;21870;42.812;74.628;2022-10-22T03:05:20;21.00;70.10
35746;DHT22;21870;42.812;74.628;2022-10-22T03:07:46;21.20;70.70
35746;DHT22;21870;42.812;74.628;2022-10-22T03:10:12;21.40;70.20
35746;DHT22;21870;42.812;74.628;2022-10-22T03:12:38;21.50;70.30
35746;DHT22;21870;42.812;74.628;2022-10-22T03:15:05;21.60;75.00
35746;DHT22;21870;42.812;74.628;2022-10-22T03:17:31;21.80;70.80
35746;DHT22;21870;42.812;74.628;2022-10-22T03:19:57;22.10;65.50
35746;DHT22;21870;42.812;74.628;2022-10-22T03:22:26;22.20;70.10
35746;DHT22;21870;42.812;74.628;2022-10-22T03:24:56;22.40;69.10
35746;DHT22;21870;42.812;74.628;2022-10-22T03:27:23;22.50;68.10
35746;DHT22;21870;42.812;74.628;2022-10-22T03:29:51;22.80;67.80
35746;DHT22;21870;42.812;74.628;2022-10-22T03:32:18;22.90;69.80
35746;DHT22;21870;42.812;74.628;2022-10-22T03:34:44;23.00;69.20
35746;DHT22;21870;42.812;74.628;2022-10-22T03:37:10;23.20;69.60
35746;DHT22;21870;42.812;74.628;2022-10-22T03:39:37;23.30;69.10
35746;DHT22;21870;42.812;74.628;2022-10-22T03:42:04;23.50;72.20
35746;DHT22;21870;42.812;74.628;2022-10-22T03:44:32;23.70;68.90
35746;DHT22;21870;42.812;74.628;2022-10-22T03:46:58;24.00;66.30
35746;DHT22;21870;42.812;74.628;2022-10-22T03:49:24;24.20;65.90
35746;DHT22;21870;42.812;74.628;2022-10-22T03:51:50;24.30;73.20
35746;DHT22;21870;42.812;74.628;2022-10-22T03:54:16;24.30;68.80
35746;DHT22;21870;42.812;74.628;2022-10-22T03:56:42;24.40;67.40
35746;DHT22;21870;42.812;74.628;2022-10-22T03:59:08;24.40;72.10
35746;DHT22;21870;42.812;74.628;2022-10-22T04:01:35;24.60;73.00
35746;DHT22;21870;42.812;74.628;2022-10-22T04:04:01;24.70;79.20
35746;DHT22;21870;42.812;74.628;2022-10-22T04:06:28;24.80;77.80
35746;DHT22;21870;42.812;74.628;2022-10-22T04:08:55;25.00;80.20
35746;DHT22;21870;42.812;74.628;2022-10-22T04:11:21;25.10;78.60
35746;DHT22;21870;42.812;74.628;2022-10-22T04:13:47;25.20;80.60
35746;DHT22;21870;42.812;74.628;2022-10-22T04:16:19;25.50;79.50
35746;DHT22;21870;42.812;74.628;2022-10-22T04:18:47;25.70;77.80
35746;DHT22;21870;42.812;74.628;2022-10-22T04:21:16;25.80;76.30
35746;DHT22;21870;42.812;74.628;2022-10-22T04:23:50;25.90;80.70
35746;DHT22;21870;42.812;74.628;2022-10-22T04:26:18;25.90;75.00
35746;DHT22;21870;42.812;74.628;2022-10-22T04:28:45;26.00;77.10
35746;DHT22;21870;42.812;74.628;2022-10-22T04:31:18;26.10;73.90
35746;DHT22;21870;42.812;74.628;2022-10-22T04:33:45;26.10;73.50
35746;DHT22;21870;42.812;74.628;2022-10-22T04:36:16;26.30;71.10
35746;DHT22;21870;42.812;74.628;2022-10-22T04:38:44;26.30;68.60
35746;DHT22;21870;42.812;74.628;2022-10-22T04:41:12;26.50;67.10
35746;DHT22;21870;42.812;74.628;2022-10-22T04:43:38;26.60;66.70
35746;DHT22;21870;42.812;74.628;2022-10-22T04:46:05;26.70;66.30
35746;DHT22;21870;42.812;74.628;2022-10-22T04:48:35;26.60;66.80
35746;DHT22;21870;42.812;74.628;2022-10-22T04:51:01;26.80;67.10
35746;DHT22;21870;42.812;74.628;2022-10-22T04:53:27;26.80;66.50
35746;DHT22;21870;42.812;74.628;2022-10-22T04:55:53;26.80;67.20
35746;DHT22;21870;42.812;74.628;2022-10-22T04:58:19;26.80;67.10
35746;DHT22;21870;42.812;74.628;2022-10-22T05:00:46;27.00;68.00
35746;DHT22;21870;42.812;74.628;2022-10-22T05:03:12;27.10;67.10
35746;DHT22;21870;42.812;74.628;2022-10-22T05:05:38;27.30;68.90
35746;DHT22;21870;42.812;74.628;2022-10-22T05:08:04;27.50;69.70
35746;DHT22;21870;42.812;74.628;2022-10-22T05:10:30;27.60;70.00
35746;DHT22;21870;42.812;74.628;2022-10-22T05:12:56;27.70;69.90
35746;DHT22;21870;42.812;74.628;2022-10-22T05:15:22;27.70;68.00
35746;DHT22;21870;42.812;74.628;2022-10-22T05:17:48;27.70;67.40
35746;DHT22;21870;42.812;74.628;2022-10-22T05:20:14;27.90;66.30
35746;DHT22;21870;42.812;74.628;2022-10-22T05:22:40;28.00;64.30
35746;DHT22;21870;42.812;74.628;2022-10-22T05:25:07;28.20;64.80
35746;DHT22;21870;42.812;74.628;2022-10-22T05:27:33;28.50;65.60
35746;DHT22;21870;42.812;74.628;2022-10-22T05:29:59;28.60;65.80
35746;DHT22;21870;42.812;74.628;2022-10-22T05:32:25;28.70;62.40
35746;DHT22;21870;42.812;74.628;2022-10-22T05:34:51;28.70;63.40
35746;DHT22;21870;42.812;74.628;2022-10-22T05:37:17;28.80;65.30
35746;DHT22;21870;42.812;74.628;2022-10-22T05:39:43;28.80;64.00
35746;DHT22;21870;42.812;74.628;2022-10-22T05:42:09;28.80;64.80
35746;DHT22;21870;42.812;74.628;2022-10-22T05:44:35;29.00;65.60
35746;DHT22;21870;42.812;74.628;2022-10-22T05:47:01;29.00;65.60
35746;DHT22;21870;42.812;74.628;2022-10-22T05:49:28;29.00;64.20
35746;DHT22;21870;42.812;74.628;2022-10-22T05:51:54;29.00;64.30
35746;DHT22;21870;42.812;74.628;2022-10-22T05:54:20;29.10;61.80
35746;DHT22;21870;42.812;74.628;2022-10-22T05:56:48;29.30;64.60
35746;DHT22;21870;42.812;74.628;2022-10-22T05:59:15;29.20;65.80
35746;DHT22;21870;42.812;74.628;2022-10-22T06:01:41;29.20;63.60
35746;DHT22;21870;42.812;74.628;2022-10-22T06:04:10;29.10;60.20
35746;DHT22;21870;42.812;74.628;2022-10-22T06:11:36;28.90;58.90
35746;DHT22;21870;42.812;74.628;2022-10-22T06:14:03;28.90;60.60
35746;DHT22;21870;42.812;74.628;2022-10-22T06:16:30;29.10;61.70
35746;DHT22;21870;42.812;74.628;2022-10-22T06:18:58;29.10;62.40
35746;DHT22;21870;42.812;74.628;2022-10-22T06:21:28;29.20;61.40
35746;DHT22;21870;42.812;74.628;2022-10-22T06:23:55;29.40;61.70
35746;DHT22;21870;42.812;74.628;2022-10-22T06:26:22;29.50;62.70
35746;DHT22;21870;42.812;74.628;2022-10-22T06:28:48;29.80;65.10
35746;DHT22;21870;42.812;74.628;2022-10-22T06:31:14;29.80;64.20
35746;DHT22;21870;42.812;74.628;2022-10-22T06:33:40;29.90;62.90
35746;DHT22;21870;42.812;74.628;2022-10-22T06:36:16;30.00;63.10
35746;DHT22;21870;42.812;74.628;2022-10-22T06:38:43;30.10;63.40
35746;DHT22;21870;42.812;74.628;2022-10-22T06:41:11;30.30;64.50
35746;DHT22;21870;42.812;74.628;2022-10-22T06:43:38;30.30;62.70
35746;DHT22;21870;42.812;74.628;2022-10-22T06:46:08;30.40;64.20
35746;DHT22;21870;42.812;74.628;2022-10-22T06:48:38;30.50;62.00
35746;DHT22;21870;42.812;74.628;2022-10-22T06:51:07;30.50;62.80
35746;DHT22;21870;42.812;74.628;2022-10-22T06:53:34;30.60;59.80
35746;DHT22;21870;42.812;74.628;2022-10-22T06:56:13;30.50;60.60
35746;DHT22;21870;42.812;74.628;2022-10-22T06:58:39;30.70;59.30
35746;DHT22;21870;42.812;74.628;2022-10-22T07:01:11;30.80;60.90
35746;DHT22;21870;42.812;74.628;2022-10-22T07:03:38;30.90;61.40
35746;DHT22;21870;42.812;74.628;2022-10-22T07:06:07;31.00;61.70
35746;DHT22;21870;42.812;74.628;2022-10-22T07:08:35;31.10;61.20
35746;DHT22;21870;42.812;74.628;2022-10-22T07:11:06;31.10;61.30
35746;DHT22;21870;42.812;74.628;2022-10-22T07:13:33;31.20;61.00
35746;DHT22;21870;42.812;74.628;2022-10-22T07:15:59;31.30;60.30
35746;DHT22;21870;42.812;74.628;2022-10-22T07:18:25;31.50;60.00
35746;DHT22;21870;42.812;74.628;2022-10-22T07:20:51;31.50;60.30
35746;DHT22;21870;42.812;74.628;2022-10-22T07:23:17;31.30;61.70
35746;DHT22;21870;42.812;74.628;2022-10-22T07:25:43;31.30;61.70
35746;DHT22;21870;42.812;74.628;2022-10-22T07:28:10;31.30;59.30
35746;DHT22;21870;42.812;74.628;2022-10-22T07:30:37;31.50;59.80
35746;DHT22;21870;42.812;74.628;2022-10-22T07:33:04;31.60;59.40
35746;DHT22;21870;42.812;74.628;2022-10-22T07:35:30;31.60;59.60
35746;DHT22;21870;42.812;74.628;2022-10-22T07:37:56;31.80;60.10
35746;DHT22;21870;42.812;74.628;2022-10-22T07:40:22;31.80;60.90
35746;DHT22;21870;42.812;74.628;2022-10-22T07:42:48;32.10;60.80
35746;DHT22;21870;42.812;74.628;2022-10-22T07:45:15;32.00;60.00
35746;DHT22;21870;42.812;74.628;2022-10-22T07:47:41;32.20;59.50
35746;DHT22;21870;42.812;74.628;2022-10-22T07:50:08;32.10;58.60
35746;DHT22;21870;42.812;74.628;2022-10-22T07:52:34;32.00;58.60
35746;DHT22;21870;42.812;74.628;2022-10-22T07:55:02;32.10;60.40
35746;DHT22;21870;42.812;74.628;2022-10-22T07:57:28;32.00;59.00
35746;DHT22;21870;42.812;74.628;2022-10-22T07:59:54;32.00;58.70
35746;DHT22;21870;42.812;74.628;2022-10-22T08:02:24;32.00;57.40
35746;DHT22;21870;42.812;74.628;2022-10-22T08:04:50;32.00;58.40
35746;DHT22;21870;42.812;74.628;2022-10-22T08:07:17;32.10;59.20
35746;DHT22;21870;42.812;74.628;2022-10-22T08:09:43;32.00;58.30
35746;DHT22;21870;42.812;74.628;2022-10-22T08:12:09;32.10;59.50
35746;DHT22;21870;42.812;74.628;2022-10-22T08:14:35;32.30;58.50
35746;DHT22;21870;42.812;74.628;2022-10-22T08:17:01;32.50;58.80
35746;DHT22;21870;42.812;74.628;2022-10-22T08:19:27;32.70;58.10
35746;DHT22;21870;42.812;74.628;2022-10-22T08:21:55;32.60;58.20
35746;DHT22;21870;42.812;74.628;2022-10-22T08:24:21;32.70;56.20
35746;DHT22;21870;42.812;74.628;2022-10-22T08:26:48;32.70;56.20
35746;DHT22;21870;42.812;74.628;2022-10-22T08:29:14;32.90;56.90
35746;DHT22;21870;42.812;74.628;2022-10-22T08:31:40;32.70;57.30
35746;DHT22;21870;42.812;74.628;2022-10-22T08:34:06;32.80;58.20
35746;DHT22;21870;42.812;74.628;2022-10-22T08:36:33;33.00;59.30
35746;DHT22;21870;42.812;74.628;2022-10-22T08:38:59;32.80;59.40
35746;DHT22;21870;42.812;74.628;2022-10-22T08:41:25;32.80;58.90
35746;DHT22;21870;42.812;74.628;2022-10-22T08:49:35;32.40;56.20
35746;DHT22;21870;42.812;74.628;2022-10-22T08:52:02;32.60;57.10
35746;DHT22;21870;42.812;74.628;2022-10-22T09:03:15;32.60;55.70
35746;DHT22;21870;42.812;74.628;2022-10-22T09:08:22;32.90;56.30
35746;DHT22;21870;42.812;74.628;2022-10-22T09:11:04;32.80;55.80
35746;DHT22;21870;42.812;74.628;2022-10-22T09:13:31;32.80;55.80
35746;DHT22;21870;42.812;74.628;2022-10-22T09:16:00;32.70;56.90
35746;DHT22;21870;42.812;74.628;2022-10-22T09:18:38;32.60;56.50
35746;DHT22;21870;42.812;74.628;2022-10-22T09:26:41;32.60;55.30
35746;DHT22;21870;42.812;74.628;2022-10-22T09:29:20;32.40;56.20
35746;DHT22;21870;42.812;74.628;2022-10-22T09:31:47;32.60;56.80
35746;DHT22;21870;42.812;74.628;2022-10-22T09:34:19;32.70;56.20
35746;DHT22;21870;42.812;74.628;2022-10-22T09:36:45;32.30;55.90
35746;DHT22;21870;42.812;74.628;2022-10-22T09:39:31;32.40;56.80
35746;DHT22;21870;42.812;74.628;2022-10-22T09:41:58;32.30;56.50
35746;DHT22;21870;42.812;74.628;2022-10-22T09:44:24;32.40;56.30
35746;DHT22;21870;42.812;74.628;2022-10-22T09:46:50;32.50;56.10
35746;DHT22;21870;42.812;74.628;2022-10-22T09:49:22;32.60;56.40
35746;DHT22;21870;42.812;74.628;2022-10-22T09:51:57;32.70;56.90
35746;DHT22;21870;42.812;74.628;2022-10-22T09:54:40;32.60;56.50
35746;DHT22;21870;42.812;74.628;2022-10-22T09:59:40;32.30;56.40
35746;DHT22;21870;42.812;74.628;2022-10-22T10:02:16;32.30;56.80
35746;DHT22;21870;42.812;74.628;2022-10-22T10:04:49;32.40;57.20
35746;DHT22;21870;42.812;74.628;2022-10-22T10:07:27;32.40;57.40
35746;DHT22;21870;42.812;74.628;2022-10-22T10:09:57;32.40;57.60
35746;DHT22;21870;42.812;74.628;2022-10-22T10:15:19;32.00;57.10
35746;DHT22;21870;42.812;74.628;2022-10-22T10:20:51;32.20;58.20
35746;DHT22;21870;42.812;74.628;2022-10-22T10:26:18;31.90;57.00
35746;DHT22;21870;42.812;74.628;2022-10-22T10:28:54;31.90;57.10
35746;DHT22;21870;42.812;74.628;2022-10-22T10:34:31;32.00;58.20
35746;DHT22;21870;42.812;74.628;2022-10-22T10:37:03;32.00;58.20
35746;DHT22;21870;42.812;74.628;2022-10-22T10:40:18;31.90;58.30
35746;DHT22;21870;42.812;74.628;2022-10-22T10:43:08;32.00;58.30
35746;DHT22;21870;42.812;74.628;2022-10-22T10:45:48;32.00;58.40
35746;DHT22;21870;42.812;74.628;2022-10-22T10:48:40;32.00;57.80
35746;DHT22;21870;42.812;74.628;2022-10-22T10:57:02;31.80;58.60
35746;DHT22;21870;42.812;74.628;2022-10-22T11:00:07;31.70;59.10
35746;DHT22;21870;42.812;74.628;2022-10-22T11:08:14;31.60;60.90
35746;DHT22;21870;42.812;74.628;2022-10-22T11:11:00;31.30;60.40
35746;DHT22;21870;42.812;74.628;2022-10-22T11:16:54;31.00;61.00
35746;DHT22;21870;42.812;74.628;2022-10-22T11:19:55;30.50;61.40
35746;DHT22;21870;42.812;74.628;2022-10-22T11:22:34;30.20;62.00
35746;DHT22;21870;42.812;74.628;2022-10-22T11:27:53;29.90;62.30
35746;DHT22;21870;42.812;74.628;2022-10-22T11:30:23;29.40;62.80
35746;DHT22;21870;42.812;74.628;2022-10-22T11:33:02;29.20;62.80
35746;DHT22;21870;42.812;74.628;2022-10-22T11:35:38;29.10;63.40
35746;DHT22;21870;42.812;74.628;2022-10-22T11:38:06;28.80;63.60
35746;DHT22;21870;42.812;74.628;2022-10-22T11:43:10;28.50;64.30
35746;DHT22;21870;42.812;74.628;2022-10-22T11:45:41;28.20;64.70
35746;DHT22;21870;42.812;74.628;2022-10-22T11:50:55;27.70;66.90
35746;DHT22;21870;42.812;74.628;2022-10-22T11:55:52;27.20;67.40
35746;DHT22;21870;42.812;74.628;2022-10-22T12:19:39;25.10;69.00
35746;DHT22;21870;42.812;74.628;2022-10-22T12:24:40;24.40;69.00
35746;DHT22;21870;42.812;74.628;2022-10-22T12:27:22;24.30;69.60
35746;DHT22;21870;42.812;74.628;2022-10-22T12:29:53;24.20;69.50
35746;DHT22;21870;42.812;74.628;2022-10-22T12:32:20;23.90;69.80
35746;DHT22;21870;42.812;74.628;2022-10-22T12:34:55;23.70;70.20
35746;DHT22;21870;42.812;74.628;2022-10-22T12:37:21;23.50;70.70
35746;DHT22;21870;42.812;74.628;2022-10-22T12:39:47;23.30;70.60
35746;DHT22;21870;42.812;74.628;2022-10-22T12:42:16;23.10;71.00
35746;DHT22;21870;42.812;74.628;2022-10-22T12:44:43;22.80;71.20
35746;DHT22;21870;42.812;74.628;2022-10-22T12:47:17;22.80;71.40
35746;DHT22;21870;42.812;74.628;2022-10-22T12:49:48;22.70;71.50
35746;DHT22;21870;42.812;74.628;2022-10-22T12:52:20;22.80;71.30
35746;DHT22;21870;42.812;74.628;2022-10-22T12:54:50;22.60;71.50
35746;DHT22;21870;42.812;74.628;2022-10-22T12:57:20;22.50;71.40
35746;DHT22;21870;42.812;74.628;2022-10-22T12:59:49;22.40;71.80
35746;DHT22;21870;42.812;74.628;2022-10-22T13:02:23;22.30;72.40
35746;DHT22;21870;42.812;74.628;2022-10-22T13:05:19;22.20;72.10
35746;DHT22;21870;42.812;74.628;2022-10-22T13:07:51;22.00;72.40
35746;DHT22;21870;42.812;74.628;2022-10-22T13:10:25;21.90;73.00
35746;DHT22;21870;42.812;74.628;2022-10-22T13:12:55;21.70;73.40
35746;DHT22;21870;42.812;74.628;2022-10-22T13:18:05;21.50;73.20
35746;DHT22;21870;42.812;74.628;2022-10-22T13:20:32;21.40;73.40
35746;DHT22;21870;42.812;74.628;2022-10-22T13:23:04;21.30;73.20
35746;DHT22;21870;42.812;74.628;2022-10-22T13:25:37;21.30;73.70
35746;DHT22;21870;42.812;74.628;2022-10-22T13:28:17;21.30;73.60
35746;DHT22;21870;42.812;74.628;2022-10-22T13:30:56;21.20;73.40
35746;DHT22;21870;42.812;74.628;2022-10-22T13:33:25;21.20;72.90
35746;DHT22;21870;42.812;74.628;2022-10-22T13:35:55;21.30;72.30
35746;DHT22;21870;42.812;74.628;2022-10-22T13:38:24;21.40;71.30
35746;DHT22;21870;42.812;74.628;2022-10-22T13:40:51;21.40;71.20
35746;DHT22;21870;42.812;74.628;2022-10-22T13:43:17;21.50;71.90
35746;DHT22;21870;42.812;74.628;2022-10-22T13:45:44;21.40;71.50
35746;DHT22;21870;42.812;74.628;2022-10-22T13:48:19;21.40;71.50
35746;DHT22;21870;42.812;74.628;2022-10-22T13:50:50;21.50;70.00
35746;DHT22;21870;42.812;74.628;2022-10-22T13:53:22;21.50;69.50
35746;DHT22;21870;42.812;74.628;2022-10-22T13:55:48;21.50;69.10
35746;DHT22;21870;42.812;74.628;2022-10-22T13:58:20;21.60;68.90
35746;DHT22;21870;42.812;74.628;2022-10-22T14:00:48;21.60;69.80
35746;DHT22;21870;42.812;74.628;2022-10-22T14:03:18;21.70;68.90
35746;DHT22;21870;42.812;74.628;2022-10-22T14:05:45;21.60;68.70
35746;DHT22;21870;42.812;74.628;2022-10-22T14:08:15;21.60;68.30
35746;DHT22;21870;42.812;74.628;2022-10-22T14:10:42;21.70;68.90
35746;DHT22;21870;42.812;74.628;2022-10-22T14:13:15;21.70;68.00
35746;DHT22;21870;42.812;74.628;2022-10-22T14:15:42;21.70;68.40
35746;DHT22;21870;42.812;74.628;2022-10-22T14:18:14;21.70;68.40
35746;DHT22;21870;42.812;74.628;2022-10-22T14:20:42;21.70;68.40
35746;DHT22;21870;42.812;74.628;2022-10-22T14:23:15;21.70;68.50
35746;DHT22;21870;42.812;74.628;2022-10-22T14:25:43;21.70;70.80
35746;DHT22;21870;42.812;74.628;2022-10-22T14:28:10;21.60;72.00
35746;DHT22;21870;42.812;74.628;2022-10-22T14:30:37;21.60;71.70
35746;DHT22;21870;42.812;74.628;2022-10-22T14:35:36;21.60;72.00
35746;DHT22;21870;42.812;74.628;2022-10-22T14:38:02;21.50;73.60
35746;DHT22;21870;42.812;74.628;2022-10-22T14:40:28;21.50;70.00
35746;DHT22;21870;42.812;74.628;2022-10-22T14:42:55;21.30;72.30
35746;DHT22;21870;42.812;74.628;2022-10-22T14:45:24;21.20;72.90
35746;DHT22;21870;42.812;74.628;2022-10-22T14:47:52;21.20;71.80
35746;DHT22;21870;42.812;74.628;2022-10-22T14:50:23;21.20;75.60
35746;DHT22;21870;42.812;74.628;2022-10-22T14:52:50;21.10;73.90
35746;DHT22;21870;42.812;74.628;2022-10-22T14:55:18;21.10;76.00
35746;DHT22;21870;42.812;74.628;2022-10-22T14:57:45;21.00;72.90
35746;DHT22;21870;42.812;74.628;2022-10-22T15:00:14;21.00;71.30
35746;DHT22;21870;42.812;74.628;2022-10-22T15:02:41;20.90;72.20
35746;DHT22;21870;42.812;74.628;2022-10-22T15:05:07;20.80;74.30
35746;DHT22;21870;42.812;74.628;2022-10-22T15:07:34;20.60;73.90
35746;DHT22;21870;42.812;74.628;2022-10-22T15:10:00;20.60;72.70
35746;DHT22;21870;42.812;74.628;2022-10-22T15:12:26;20.60;72.50
35746;DHT22;21870;42.812;74.628;2022-10-22T15:14:52;20.50;77.80
35746;DHT22;21870;42.812;74.628;2022-10-22T15:17:18;20.50;74.40
35746;DHT22;21870;42.812;74.628;2022-10-22T15:19:44;20.50;72.80
35746;DHT22;21870;42.812;74.628;2022-10-22T15:22:12;20.50;76.00
35746;DHT22;21870;42.812;74.628;2022-10-22T15:24:39;20.40;74.50
35746;DHT22;21870;42.812;74.628;2022-10-22T15:27:05;20.40;72.80
35746;DHT22;21870;42.812;74.628;2022-10-22T15:29:32;20.40;75.30
35746;DHT22;21870;42.812;74.628;2022-10-22T15:31:58;20.40;72.90
35746;DHT22;21870;42.812;74.628;2022-10-22T15:34:31;20.40;73.50
35746;DHT22;21870;42.812;74.628;2022-10-22T15:37:00;20.40;74.10
35746;DHT22;21870;42.812;74.628;2022-10-22T15:39:28;20.40;73.20
35746;DHT22;21870;42.812;74.628;2022-10-22T15:41:55;20.40;76.30
35746;DHT22;21870;42.812;74.628;2022-10-22T15:44:26;20.30;73.90
35746;DHT22;21870;42.812;74.628;2022-10-22T15:46:53;20.20;73.00
35746;DHT22;21870;42.812;74.628;2022-10-22T15:49:20;20.20;73.60
35746;DHT22;21870;42.812;74.628;2022-10-22T15:51:46;20.10;73.70
35746;DHT22;21870;42.812;74.628;2022-10-22T15:54:15;20.10;73.20
35746;DHT22;21870;42.812;74.628;2022-10-22T15:56:42;20.10;72.90
35746;DHT22;21870;42.812;74.628;2022-10-22T15:59:10;20.10;72.70
35746;DHT22;21870;42.812;74.628;2022-10-22T16:01:37;20.00;72.90
35746;DHT22;21870;42.812;74.628;2022-10-22T16:04:04;20.00;73.40
35746;DHT22;21870;42.812;74.628;2022-10-22T16:06:37;19.90;73.40
35746;DHT22;21870;42.812;74.628;2022-10-22T16:09:07;19.90;74.60
35746;DHT22;21870;42.812;74.628;2022-10-22T16:11:34;19.90;73.80
35746;DHT22;21870;42.812;74.628;2022-10-22T16:14:00;20.00;74.00
35746;DHT22;21870;42.812;74.628;2022-10-22T16:16:29;20.00;74.40
35746;DHT22;21870;42.812;74.628;2022-10-22T16:18:55;20.00;73.70
35746;DHT22;21870;42.812;74.628;2022-10-22T16:21:22;20.00;74.00
35746;DHT22;21870;42.812;74.628;2022-10-22T16:23:48;20.00;73.60
35746;DHT22;21870;42.812;74.628;2022-10-22T16:26:15;20.00;73.10
35746;DHT22;21870;42.812;74.628;2022-10-22T16:28:42;20.00;73.90
35746;DHT22;21870;42.812;74.628;2022-10-22T16:31:10;19.90;74.50
35746;DHT22;21870;42.812;74.628;2022-10-22T16:33:37;19.90;73.90
35746;DHT22;21870;42.812;74.628;2022-10-22T16:36:16;20.00;74.60
35746;DHT22;21870;42.812;74.628;2022-10-22T16:38:46;20.00;75.00
35746;DHT22;21870;42.812;74.628;2022-10-22T16:41:18;19.90;73.50
35746;DHT22;21870;42.812;74.628;2022-10-22T16:43:47;19.90;73.70
35746;DHT22;21870;42.812;74.628;2022-10-22T16:46:15;19.80;73.60
35746;DHT22;21870;42.812;74.628;2022-10-22T16:48:49;19.80;73.80
35746;DHT22;21870;42.812;74.628;2022-10-22T16:51:18;19.70;74.10
35746;DHT22;21870;42.812;74.628;2022-10-22T16:53:44;19.70;74.10
35746;DHT22;21870;42.812;74.628;2022-10-22T16:56:12;19.60;74.80
35746;DHT22;21870;42.812;74.628;2022-10-22T16:58:42;19.60;74.70
35746;DHT22;21870;42.812;74.628;2022-10-22T17:01:12;19.60;74.60
35746;DHT22;21870;42.812;74.628;2022-10-22T17:03:38;19.70;74.50
35746;DHT22;21870;42.812;74.628;2022-10-22T17:06:05;19.70;75.00
35746;DHT22;21870;42.812;74.628;2022-10-22T17:08:33;19.70;75.40
35746;DHT22;21870;42.812;74.628;2022-10-22T17:11:07;19.70;75.30
35746;DHT22;21870;42.812;74.628;2022-10-22T17:13:33;19.70;75.70
35746;DHT22;21870;42.812;74.628;2022-10-22T17:16:04;19.70;76.30
35746;DHT22;21870;42.812;74.628;2022-10-22T17:18:30;19.70;76.60
35746;DHT22;21870;42.812;74.628;2022-10-22T17:20:56;19.60;76.50
35746;DHT22;21870;42.812;74.628;2022-10-22T17:23:24;19.60;78.90
35746;DHT22;21870;42.812;74.628;2022-10-22T17:26:04;19.50;81.30